Arnott, Wisconsin
Current Conditions -  °F | °C
As of 6:35 AM on Sunday 21 Dec 2014 (Local Time) from KSTE Reporting Station
Haze Haze  
Wind Chill: 21°   Ceiling: 700
Heat Index: 28°   Visibility: 3mi
Dew Point: 26°   Wind: 6mph
Humidity: 94%   Direction: 130°SE
Pressure: 30.08"   Gusts: NA
Location:  44.5531°N, 89.5186°W
Report Text: KSTE 211235Z AUTO 13005KT 3SM BR OVC007 M02/M03 A3008 RMK AO2 T10251033
Loading
Personal Weather Stations






























Interactive Weather Map New forecast layout! Learn more

10-Day Weather Forecast

Advertisements
Track Severe Weather on mobile